Time;durP1;ratioP1;P1;durP2;ratioP2;P2;SDS_P1;SDS_P2;PMS_P1;PMS_P2;Temp;Humidity;BMP_temperature;BMP_pressure;BME280_temperature;BME280_humidity;BME280_pressure;Samples;Min_cycle;Max_cycle;Signal;HPM_P1;HPM_P2
2022/06/25 00:01:24;;;;;;;4.57;3.00;;;;;;;17.69;89.93;100756.34;5029677;28;20147;-65
2022/06/25 00:03:50;;;;;;;4.25;3.10;;;;;;;17.66;90.06;100746.06;5029680;28;20034;-65
2022/06/25 00:06:17;;;;;;;4.78;3.35;;;;;;;17.63;89.73;100748.41;5029615;28;20048;-65
2022/06/25 00:08:44;;;;;;;4.18;3.30;;;;;;;17.60;90.11;100746.22;5029570;28;20477;-64
2022/06/25 00:12:31;;;;;;;4.28;3.10;;;;;;;17.63;89.59;100751.09;5029493;28;20060;-65
2022/06/25 00:13:56;;;;;;;3.28;2.90;;;;;;;17.61;89.75;100764.03;5028911;28;20033;-65
2022/06/25 00:16:22;;;;;;;4.97;2.90;;;;;;;17.57;90.50;100763.69;5029338;28;20112;-65
2022/06/25 00:18:48;;;;;;;5.82;3.15;;;;;;;17.56;90.65;100761.25;5029442;28;20435;-65
2022/06/25 00:21:13;;;;;;;5.45;3.05;;;;;;;17.53;90.22;100765.28;5029545;28;20108;-65
2022/06/25 00:23:39;;;;;;;4.78;3.63;;;;;;;17.51;90.23;100765.50;5029472;28;20044;-65
2022/06/25 00:26:04;;;;;;;4.97;2.97;;;;;;;17.48;90.22;100768.69;5029369;28;20057;-65
2022/06/25 00:28:29;;;;;;;3.38;2.70;;;;;;;17.47;90.05;100766.22;5029304;28;20053;-65
2022/06/25 00:30:55;;;;;;;3.42;3.03;;;;;;;17.48;90.12;100773.28;5029356;28;20108;-65
2022/06/25 00:33:20;;;;;;;3.65;2.72;;;;;;;17.49;90.20;100769.50;5027921;28;20083;-65
2022/06/25 00:35:46;;;;;;;3.95;3.08;;;;;;;17.46;90.38;100768.13;5029325;28;20041;-65
2022/06/25 00:38:11;;;;;;;3.03;2.63;;;;;;;17.44;90.50;100769.41;5028972;28;20673;-65
2022/06/25 00:40:36;;;;;;;3.58;3.28;;;;;;;17.40;90.51;100769.09;5029076;28;20044;-65
2022/06/25 00:43:02;;;;;;;4.55;2.85;;;;;;;17.41;90.11;100765.31;5029033;28;20125;-65
2022/06/25 00:45:27;;;;;;;3.13;2.60;;;;;;;17.43;90.08;100776.69;5029083;28;20045;-65
2022/06/25 00:47:53;;;;;;;2.92;2.60;;;;;;;17.43;90.09;100771.31;5029082;28;20670;-65
2022/06/25 00:50:18;;;;;;;3.78;2.67;;;;;;;17.42;90.33;100774.22;5029073;28;20041;-65
2022/06/25 00:52:49;;;;;;;3.58;2.22;;;;;;;17.40;90.08;100771.78;5029538;28;20061;-65
2022/06/25 00:55:19;;;;;;;4.38;3.15;;;;;;;17.34;90.31;100758.47;5033071;28;20112;-65
2022/06/25 00:57:49;;;;;;;4.28;3.00;;;;;;;17.37;90.31;100771.44;5033182;28;20026;-65
2022/06/25 01:00:15;;;;;;;3.92;3.22;;;;;;;17.34;90.01;100767.34;5033126;28;20041;-65
2022/06/25 01:02:42;;;;;;;4.40;2.50;;;;;;;17.34;90.23;100769.25;5033049;28;20477;-65
2022/06/25 01:05:10;;;;;;;4.53;2.67;;;;;;;17.32;90.38;100780.28;5033000;28;20464;-65
2022/06/25 01:07:37;;;;;;;5.90;3.00;;;;;;;17.28;90.35;100779.94;5032795;28;20029;-65
2022/06/25 01:10:03;;;;;;;4.03;3.30;;;;;;;17.24;90.58;100786.88;5032130;28;20026;-64
2022/06/25 01:12:29;;;;;;;4.75;2.80;;;;;;;17.24;90.46;100786.06;5031637;28;20064;-65
2022/06/25 01:15:09;;;;;;;5.93;2.67;;;;;;;17.18;90.37;100779.75;5032791;28;20507;-64
2022/06/25 01:17:38;;;;;;;3.88;2.95;;;;;;;17.20;90.55;100787.59;5032913;28;20033;-65
2022/06/25 01:20:06;;;;;;;5.47;2.72;;;;;;;17.18;90.23;100795.91;5032868;28;20029;-65
2022/06/25 01:22:32;;;;;;;3.42;2.63;;;;;;;17.19;90.35;100804.84;5032624;28;20473;-65
2022/06/25 01:24:57;;;;;;;4.80;2.75;;;;;;;17.18;90.16;100800.50;5032480;28;20025;-65
2022/06/25 01:27:23;;;;;;;5.97;2.45;;;;;;;17.16;90.58;100806.16;5032354;28;20076;-65
2022/06/25 01:29:48;;;;;;;5.97;2.55;;;;;;;17.13;90.45;100806.59;5032637;28;20401;-65
2022/06/25 01:32:13;;;;;;;8.18;2.83;;;;;;;17.12;90.73;100809.56;5032596;28;20047;-65
2022/06/25 01:34:39;;;;;;;4.70;3.08;;;;;;;17.05;90.11;100796.22;5032517;28;20063;-64
2022/06/25 01:37:04;;;;;;;5.25;3.38;;;;;;;17.11;90.13;100803.34;5032404;28;20029;-65
2022/06/25 01:39:30;;;;;;;4.75;2.83;;;;;;;17.11;89.86;100811.44;5032105;28;20033;-65
2022/06/25 01:41:55;;;;;;;3.28;2.83;;;;;;;17.11;89.93;100818.69;5032187;28;20091;-65
2022/06/25 01:44:20;;;;;;;4.95;2.58;;;;;;;17.10;89.86;100820.56;5031999;28;20031;-65
2022/06/25 01:46:46;;;;;;;4.10;3.13;;;;;;;17.09;89.79;100819.75;5032050;28;20033;-65
2022/06/25 01:49:11;;;;;;;8.05;2.75;;;;;;;17.06;89.65;100817.53;5032071;28;20038;-65
2022/06/25 01:51:36;;;;;;;5.57;2.92;;;;;;;17.06;89.52;100825.63;5031181;28;20115;-65
2022/06/25 01:54:02;;;;;;;4.85;2.90;;;;;;;17.05;89.53;100831.25;5030807;28;20029;-65
2022/06/25 01:56:27;;;;;;;6.55;3.38;;;;;;;17.04;89.62;100829.63;5030684;28;20112;-65
2022/06/25 01:58:53;;;;;;;3.05;2.70;;;;;;;17.03;89.55;100828.00;5030825;28;20496;-65
2022/06/25 02:01:18;;;;;;;4.22;2.90;;;;;;;17.00;89.22;100834.69;5030632;28;20632;-65
2022/06/25 02:03:43;;;;;;;4.65;2.78;;;;;;;16.98;89.94;100836.78;5030325;28;20365;-65
2022/06/25 02:06:09;;;;;;;4.85;2.63;;;;;;;16.98;89.53;100842.19;5030774;28;20416;-65
2022/06/25 02:08:36;;;;;;;6.90;3.45;;;;;;;16.98;89.46;100841.38;5030751;28;20492;-65
2022/06/25 02:11:04;;;;;;;6.00;2.85;;;;;;;16.97;89.27;100854.00;5030549;28;20583;-65
2022/06/25 02:13:30;;;;;;;6.20;3.60;;;;;;;16.95;89.75;100849.91;5030645;28;20033;-65
2022/06/25 02:15:56;;;;;;;4.00;2.58;;;;;;;16.90;89.74;100842.56;5030414;28;20049;-65
2022/06/25 02:18:22;;;;;;;3.20;2.80;;;;;;;16.92;89.66;100855.78;5030537;28;20040;-65
2022/06/25 02:20:48;;;;;;;7.32;3.13;;;;;;;16.90;89.69;100856.03;5030548;28;20030;-65
2022/06/25 02:23:15;;;;;;;5.82;3.33;;;;;;;16.83;89.71;100856.16;5030509;28;20045;-65
2022/06/25 02:25:42;;;;;;;6.80;3.40;;;;;;;16.83;89.60;100858.84;5030423;28;20588;-65
2022/06/25 02:28:07;;;;;;;4.97;3.08;;;;;;;16.80;89.62;100864.72;5029825;28;20105;-65
2022/06/25 02:30:33;;;;;;;7.00;2.83;;;;;;;16.77;89.49;100862.50;5030312;28;20196;-65
2022/06/25 02:32:58;;;;;;;4.35;3.08;;;;;;;16.78;89.69;100864.13;5030486;28;20386;-65
2022/06/25 02:35:24;;;;;;;5.25;2.63;;;;;;;16.77;89.43;100867.88;5030333;28;20622;-64
2022/06/25 02:37:49;;;;;;;7.88;3.45;;;;;;;16.73;90.14;100873.94;5030411;28;20619;-64
2022/06/25 02:40:15;;;;;;;4.28;3.30;;;;;;;16.71;89.85;100876.88;5030019;28;20034;-64
2022/06/25 02:42:41;;;;;;;5.35;2.80;;;;;;;16.68;89.90;100871.16;5030167;28;20484;-65
2022/06/25 02:45:08;;;;;;;7.35;3.05;;;;;;;16.65;89.98;100875.13;5030015;28;20634;-65
2022/06/25 02:47:34;;;;;;;5.95;2.92;;;;;;;16.61;89.86;100879.34;5029977;28;20032;-65
2022/06/25 02:49:59;;;;;;;6.13;3.50;;;;;;;16.60;90.12;100883.91;5030069;28;20029;-65
2022/06/25 02:52:25;;;;;;;4.38;2.80;;;;;;;16.62;89.73;100889.06;4991510;28;1115856;-65
2022/06/25 02:54:51;;;;;;;6.78;2.95;;;;;;;16.58;90.25;100891.44;5030665;28;20053;-65
2022/06/25 03:00:00;;;;;;;5.10;3.78;;;;;;;16.53;90.33;100888.63;5031285;28;20471;-65
2022/06/25 03:02:26;;;;;;;5.72;3.28;;;;;;;16.49;90.50;100883.94;5030571;28;20029;-65
2022/06/25 03:04:52;;;;;;;4.00;3.58;;;;;;;16.49;90.27;100890.13;5030533;28;20048;-65
2022/06/25 03:07:17;;;;;;;7.28;3.45;;;;;;;16.48;90.72;100890.34;5030528;28;20168;-65
2022/06/25 03:09:43;;;;;;;4.40;3.00;;;;;;;16.46;90.71;100892.47;5030745;28;20384;-64
2022/06/25 03:12:08;;;;;;;7.55;4.25;;;;;;;16.41;90.79;100895.88;5030655;28;20033;-65
2022/06/25 03:14:33;;;;;;;4.95;3.85;;;;;;;16.42;90.85;100908.25;5030341;28;20064;-65
2022/06/25 03:16:59;;;;;;;6.00;4.15;;;;;;;16.41;91.06;100906.63;5029743;28;20081;-65
2022/06/25 03:19:24;;;;;;;5.35;3.40;;;;;;;16.38;91.15;100907.13;5030540;28;20021;-65
2022/06/25 03:21:50;;;;;;;6.57;3.60;;;;;;;16.42;90.93;100902.88;5030537;28;20116;-64
2022/06/25 03:24:15;;;;;;;7.40;4.35;;;;;;;16.39;91.00;100897.97;5030390;28;20476;-65
2022/06/25 03:26:41;;;;;;;7.50;4.38;;;;;;;16.39;91.14;100906.03;5030321;28;20030;-64
2022/06/25 03:29:07;;;;;;;8.00;4.82;;;;;;;16.36;91.74;100903.81;5030319;28;20022;-64
2022/06/25 03:31:32;;;;;;;8.10;4.38;;;;;;;16.32;91.75;100906.19;5030258;28;20060;-65
2022/06/25 03:33:58;;;;;;;6.95;4.45;;;;;;;16.31;91.60;100901.00;5030190;28;20021;-64
2022/06/25 03:36:23;;;;;;;6.45;4.35;;;;;;;16.35;91.88;100904.91;5030173;28;20502;-65
2022/06/25 03:38:48;;;;;;;9.45;4.18;;;;;;;16.36;91.83;100906.53;5030181;28;20508;-65
2022/06/25 03:44:02;;;;;;;5.47;3.78;;;;;;;16.38;91.91;100909.81;5030203;28;20461;-64
2022/06/25 03:46:27;;;;;;;4.72;3.92;;;;;;;16.31;92.12;100904.53;5029952;28;20037;-64
2022/06/25 03:48:53;;;;;;;7.80;4.10;;;;;;;16.36;91.87;100909.22;5029953;28;20059;-65
2022/06/25 03:51:19;;;;;;;4.72;3.40;;;;;;;16.40;92.31;100905.81;5028276;28;20420;-65
2022/06/25 03:53:44;;;;;;;7.97;4.03;;;;;;;16.42;92.16;100909.06;5030056;28;20053;-65
2022/06/25 03:56:10;;;;;;;6.80;4.40;;;;;;;16.45;92.02;100907.78;5029735;28;20489;-65
2022/06/25 03:58:35;;;;;;;9.05;4.70;;;;;;;16.46;92.03;100904.06;5029876;28;20029;-65
2022/06/25 04:01:01;;;;;;;5.85;4.55;;;;;;;16.48;92.35;100910.03;5029777;28;20358;-64
2022/06/25 04:03:26;;;;;;;8.48;4.28;;;;;;;16.49;92.48;100908.16;5028416;28;20037;-64
2022/06/25 04:05:51;;;;;;;9.48;4.60;;;;;;;16.51;92.87;100906.06;5029703;28;20033;-65
2022/06/25 04:08:17;;;;;;;5.57;4.22;;;;;;;16.54;92.84;100913.66;5029623;28;20025;-64
2022/06/25 04:10:42;;;;;;;7.20;5.10;;;;;;;16.57;92.73;100914.00;5029615;28;20041;-65
2022/06/25 04:13:08;;;;;;;9.65;4.90;;;;;;;16.65;92.70;100919.03;5029407;28;20615;-65
2022/06/25 04:15:33;;;;;;;9.18;4.68;;;;;;;16.73;92.53;100912.47;5029338;28;20487;-64
2022/06/25 04:17:59;;;;;;;7.13;4.45;;;;;;;16.85;91.74;100924.09;5029404;28;20037;-65
2022/06/25 04:20:24;;;;;;;6.72;4.43;;;;;;;16.96;92.03;100925.13;5029402;28;20033;-65
2022/06/25 04:22:49;;;;;;;9.05;4.32;;;;;;;17.04;91.78;100924.75;5029536;28;20029;-65
2022/06/25 04:25:15;;;;;;;10.82;4.13;;;;;;;17.06;91.08;100922.66;5029353;28;20065;-65
2022/06/25 04:30:24;;;;;;;6.00;4.03;;;;;;;17.15;91.50;100930.34;5029558;28;20083;-65
2022/06/25 04:32:49;;;;;;;6.57;4.30;;;;;;;17.12;91.11;100923.56;5029268;28;20112;-65
2022/06/25 04:35:15;;;;;;;5.15;3.67;;;;;;;17.20;90.96;100935.84;5029315;28;20051;-65
2022/06/25 04:37:40;;;;;;;6.22;3.80;;;;;;;17.20;90.87;100939.34;5029293;28;20067;-64
2022/06/25 04:40:06;;;;;;;6.68;4.13;;;;;;;17.15;91.09;100935.75;5029407;28;20505;-65
2022/06/25 04:42:31;;;;;;;8.90;4.65;;;;;;;17.14;90.81;100945.72;5029380;28;20497;-65
2022/06/25 04:44:57;;;;;;;6.70;3.60;;;;;;;17.16;91.04;100951.69;5029246;28;20091;-65
2022/06/25 04:47:22;;;;;;;9.52;4.38;;;;;;;17.17;91.05;100947.13;5029267;28;20107;-65
2022/06/25 04:49:47;;;;;;;5.50;3.88;;;;;;;17.16;90.92;100937.38;5029038;28;20033;-65
2022/06/25 04:52:13;;;;;;;6.47;3.78;;;;;;;17.16;91.22;100949.00;5028889;28;20136;-65
2022/06/25 04:54:38;;;;;;;8.38;4.45;;;;;;;17.19;91.61;100953.91;5028952;28;20033;-65
2022/06/25 04:57:04;;;;;;;4.60;2.92;;;;;;;17.23;91.53;100965.84;5029021;28;20856;-64
2022/06/25 04:59:29;;;;;;;5.43;3.38;;;;;;;17.31;91.13;100964.66;5029087;28;20047;-65
2022/06/25 05:01:54;;;;;;;6.32;3.35;;;;;;;17.44;90.82;100964.38;5028895;28;20396;-65
2022/06/25 05:04:20;;;;;;;7.25;3.60;;;;;;;17.56;91.00;100967.03;5029038;28;20038;-64
2022/06/25 05:06:45;;;;;;;7.47;3.50;;;;;;;17.74;90.28;100960.63;5028726;28;20022;-65
2022/06/25 05:09:11;;;;;;;7.75;4.00;;;;;;;18.03;89.27;100972.25;5028901;28;20531;-65
2022/06/25 05:11:37;;;;;;;4.70;3.30;;;;;;;18.20;87.40;100963.34;5028944;28;20393;-65
2022/06/25 05:14:02;;;;;;;7.32;3.75;;;;;;;18.23;88.03;100966.38;5028862;28;20036;-65
2022/06/25 05:16:28;;;;;;;6.10;3.28;;;;;;;18.20;87.87;100966.84;5028244;28;20045;-65
2022/06/25 05:18:53;;;;;;;5.90;3.58;;;;;;;18.23;86.80;100966.38;5028908;28;20076;-65
2022/06/25 05:21:19;;;;;;;6.72;3.05;;;;;;;18.33;86.87;100966.53;5028876;28;20507;-65
2022/06/25 05:23:45;;;;;;;4.65;2.97;;;;;;;18.37;86.69;100970.41;5028899;28;20033;-65
2022/06/25 05:26:10;;;;;;;7.03;3.35;;;;;;;18.44;86.36;100974.81;5029136;28;20064;-65
2022/06/25 05:28:36;;;;;;;5.88;2.78;;;;;;;18.42;85.73;100974.22;5028790;28;20389;-65
2022/06/25 05:31:02;;;;;;;7.68;3.15;;;;;;;18.36;85.73;100976.84;5028883;28;20030;-65
2022/06/25 05:33:27;;;;;;;6.85;3.90;;;;;;;18.33;86.59;100974.63;5028669;28;20030;-65
2022/06/25 05:35:52;;;;;;;6.28;2.97;;;;;;;18.32;85.56;100986.50;5028622;28;20508;-65
2022/06/25 05:38:18;;;;;;;5.75;2.67;;;;;;;18.35;84.92;100983.31;5028634;28;20454;-65
2022/06/25 05:40:43;;;;;;;5.28;2.70;;;;;;;18.46;85.98;100989.69;5032091;28;20025;-65
2022/06/25 05:43:09;;;;;;;6.93;3.40;;;;;;;18.52;84.91;100990.59;5032006;28;20036;-65
2022/06/25 05:45:34;;;;;;;4.78;3.20;;;;;;;18.54;84.80;100997.38;5032402;28;20041;-65
2022/06/25 05:48:00;;;;;;;5.13;3.03;;;;;;;18.59;85.47;100992.06;5031817;28;20021;-65
2022/06/25 05:50:25;;;;;;;4.53;2.47;;;;;;;18.64;84.65;100990.53;5031979;28;20065;-65
2022/06/25 05:52:51;;;;;;;6.20;3.03;;;;;;;18.75;83.19;101003.94;5032120;28;20037;-65
2022/06/25 05:55:16;;;;;;;6.07;3.88;;;;;;;18.85;84.69;101002.47;5032082;28;20033;-65
2022/06/25 05:57:42;;;;;;;4.68;3.05;;;;;;;18.96;83.73;100996.16;5031858;28;20059;-65
2022/06/25 06:00:08;;;;;;;5.13;3.03;;;;;;;19.15;81.09;101010.19;5031965;28;20036;-65
2022/06/25 06:02:34;;;;;;;7.30;3.00;;;;;;;19.50;80.13;101015.25;5031976;28;20032;-65
2022/06/25 06:04:59;;;;;;;4.97;2.28;;;;;;;19.92;80.63;101004.66;5031859;28;20120;-65
2022/06/25 06:07:25;;;;;;;7.35;2.63;;;;;;;20.24;77.31;101014.69;5031883;28;20450;-65
2022/06/25 06:09:50;;;;;;;4.53;2.35;;;;;;;20.24;77.55;101012.00;5031749;28;20090;-65
2022/06/25 06:12:16;;;;;;;6.20;2.72;;;;;;;20.07;77.63;101025.66;5031815;28;20041;-65
2022/06/25 06:14:41;;;;;;;5.47;2.35;;;;;;;19.86;76.92;101016.50;5031603;28;20025;-65
2022/06/25 06:17:06;;;;;;;3.45;2.38;;;;;;;19.84;77.52;101032.19;5031602;28;20121;-65
2022/06/25 06:19:32;;;;;;;9.10;3.88;;;;;;;19.80;79.01;101028.34;5031773;28;20176;-65
2022/06/25 06:21:57;;;;;;;5.85;2.30;;;;;;;19.83;78.75;101030.56;5031526;28;20112;-65
2022/06/25 06:24:22;;;;;;;2.63;2.17;;;;;;;19.86;77.36;101021.94;5031533;28;20057;-65
2022/06/25 06:26:48;;;;;;;5.18;2.42;;;;;;;19.91;77.28;101023.84;5031540;28;20036;-65
2022/06/25 06:29:13;;;;;;;8.45;3.20;;;;;;;19.89;76.66;101023.31;5030926;28;21062;-65
2022/06/25 06:31:39;;;;;;;4.50;2.50;;;;;;;19.84;78.72;101024.06;5031379;28;20033;-65
2022/06/25 06:34:04;;;;;;;7.90;2.85;;;;;;;19.77;78.97;101018.03;5031512;28;20037;-64
2022/06/25 06:36:29;;;;;;;6.75;3.08;;;;;;;19.78;78.57;101024.25;5031174;28;20041;-65
2022/06/25 06:38:55;;;;;;;7.20;2.58;;;;;;;19.74;77.12;101020.44;5031355;28;20033;-64
2022/06/25 06:41:20;;;;;;;5.45;2.58;;;;;;;19.76;78.39;101024.53;5029943;28;20041;-65
2022/06/25 06:43:46;;;;;;;3.65;2.80;;;;;;;19.84;76.34;101032.19;5030959;28;20075;-65
2022/06/25 06:46:15;;;;;;;5.93;2.30;;;;;;;19.91;77.99;101021.97;5031064;28;20033;-64
2022/06/25 06:48:40;;;;;;;3.90;2.65;;;;;;;19.91;76.52;101023.84;5030804;28;20473;-65
2022/06/25 06:51:06;;;;;;;3.70;2.75;;;;;;;19.90;76.29;101027.63;5029408;28;20057;-65
2022/06/25 06:53:33;;;;;;;3.33;2.10;;;;;;;19.84;76.91;101045.72;5030952;28;20041;-65
2022/06/25 06:55:59;;;;;;;4.57;2.45;;;;;;;19.74;75.82;101036.66;5030917;28;20033;-64
2022/06/25 06:58:24;;;;;;;5.50;2.45;;;;;;;19.74;75.61;101026.66;5030932;28;20030;-64
2022/06/25 07:00:49;;;;;;;7.93;3.15;;;;;;;19.65;76.49;101042.50;5030815;28;20056;-64
2022/06/25 07:03:15;;;;;;;4.18;2.67;;;;;;;19.57;76.33;101040.25;5030718;28;20427;-64
2022/06/25 07:05:40;;;;;;;6.13;2.42;;;;;;;19.54;77.33;101040.72;5030783;28;20025;-65
2022/06/25 07:08:05;;;;;;;3.28;2.40;;;;;;;19.57;77.41;101042.09;5030825;28;20037;-65
2022/06/25 07:10:31;;;;;;;6.25;3.08;;;;;;;19.51;77.54;101045.81;5030801;28;20052;-66
2022/06/25 07:12:56;;;;;;;6.88;3.00;;;;;;;19.45;77.63;101048.47;5030794;28;20029;-66
2022/06/25 07:15:22;;;;;;;3.42;2.60;;;;;;;19.42;79.02;101046.25;5030511;28;20041;-64
2022/06/25 07:17:47;;;;;;;7.00;2.70;;;;;;;19.52;79.05;101042.03;5030400;28;20388;-64
2022/06/25 07:20:13;;;;;;;4.13;2.10;;;;;;;19.65;77.28;101050.63;5030400;28;20033;-65
2022/06/25 07:22:38;;;;;;;3.53;2.85;;;;;;;19.68;77.99;101050.13;5030422;28;20037;-65
2022/06/25 07:25:04;;;;;;;4.65;2.20;;;;;;;19.62;77.46;101043.00;5030353;28;20036;-65
2022/06/25 07:27:30;;;;;;;3.70;1.95;;;;;;;19.73;79.81;101052.09;5030350;28;20105;-65
2022/06/25 07:29:55;;;;;;;5.25;2.47;;;;;;;19.88;77.55;101046.03;5028754;28;20492;-65
2022/06/25 07:32:21;;;;;;;5.97;2.30;;;;;;;20.03;78.50;101048.09;5030334;28;20080;-65
2022/06/25 07:34:47;;;;;;;3.20;2.60;;;;;;;20.08;79.06;101050.84;5028765;28;20123;-64
2022/06/25 07:37:12;;;;;;;5.63;3.05;;;;;;;20.15;76.27;101048.75;5030211;28;20041;-65
2022/06/25 07:39:38;;;;;;;5.53;2.75;;;;;;;20.29;77.40;101044.53;5030157;28;20025;-66
2022/06/25 07:42:03;;;;;;;3.83;2.20;;;;;;;20.39;74.75;101053.84;5030116;28;20029;-66
2022/06/25 07:44:29;;;;;;;2.42;2.13;;;;;;;20.43;74.91;101050.34;5029688;28;20025;-66
2022/06/25 07:46:54;;;;;;;4.50;2.58;;;;;;;20.43;75.75;101055.78;5029848;28;20507;-66
2022/06/25 07:49:20;;;;;;;3.67;2.50;;;;;;;20.57;75.07;101048.09;5029903;28;20124;-65
2022/06/25 07:51:59;;;;;;;4.03;2.42;;;;;;;20.50;74.24;101045.53;5029192;28;20084;-66
2022/06/25 07:54:26;;;;;;;4.57;1.75;;;;;;;20.43;73.62;101057.66;5029836;28;20037;-66
2022/06/25 07:56:52;;;;;;;2.10;1.88;;;;;;;20.47;74.08;101043.34;5029789;28;20036;-65
2022/06/25 07:59:17;;;;;;;3.83;2.40;;;;;;;20.50;74.17;101048.25;5029813;28;20029;-66
2022/06/25 08:01:43;;;;;;;6.13;2.58;;;;;;;20.60;75.82;101054.88;5029498;28;20029;-66
2022/06/25 08:04:08;;;;;;;6.00;2.83;;;;;;;20.52;74.32;101054.25;5029768;28;20044;-69
2022/06/25 08:06:34;;;;;;;7.20;2.45;;;;;;;20.47;75.30;101058.81;5029536;28;20353;-69
2022/06/25 08:09:01;;;;;;;5.18;2.10;;;;;;;20.39;75.49;101051.16;5029596;28;20033;-69
2022/06/25 08:11:27;;;;;;;4.45;2.22;;;;;;;20.38;76.10;101052.19;5029742;28;20036;-69
2022/06/25 08:13:52;;;;;;;4.13;2.83;;;;;;;20.75;77.21;101050.41;5029459;28;20037;-69
2022/06/25 08:16:18;;;;;;;7.60;3.10;;;;;;;21.22;72.33;101051.50;5029770;28;20322;-69
2022/06/25 08:18:43;;;;;;;4.43;2.25;;;;;;;21.26;73.36;101049.09;5029432;28;20036;-69
2022/06/25 08:21:08;;;;;;;8.57;2.22;;;;;;;21.29;73.55;101049.38;5029433;28;20037;-69
2022/06/25 08:23:34;;;;;;;3.13;2.08;;;;;;;21.42;72.24;101059.78;5029294;28;20439;-69
2022/06/25 08:25:59;;;;;;;4.07;2.72;;;;;;;21.27;71.31;101056.13;5029333;28;20029;-69
2022/06/25 08:28:25;;;;;;;5.00;3.17;;;;;;;21.00;73.26;101047.03;5029226;28;20468;-69
2022/06/25 08:30:50;;;;;;;6.88;3.00;;;;;;;20.77;74.56;101058.25;5028909;28;20389;-70
2022/06/25 08:33:16;;;;;;;5.15;2.90;;;;;;;20.59;75.51;101062.16;5029138;28;20099;-70
2022/06/25 08:35:41;;;;;;;2.90;2.60;;;;;;;20.42;75.76;101059.56;5029005;28;20037;-69
2022/06/25 08:38:07;;;;;;;2.50;2.30;;;;;;;20.28;78.63;101055.66;5029340;28;20115;-69
2022/06/25 08:40:33;;;;;;;3.88;2.33;;;;;;;20.19;75.78;101058.00;5029067;28;20057;-69
2022/06/25 08:42:59;;;;;;;2.65;2.45;;;;;;;20.13;77.64;101067.16;5029257;28;20051;-69
2022/06/25 08:45:25;;;;;;;3.75;2.53;;;;;;;20.10;78.16;101067.66;5029023;28;20034;-69
2022/06/25 08:47:51;;;;;;;5.07;3.28;;;;;;;20.08;78.89;101067.91;5028967;28;20072;-69
2022/06/25 08:50:23;;;;;;;3.67;2.28;;;;;;;20.06;76.95;101072.75;5029216;28;20037;-69
2022/06/25 08:52:51;;;;;;;5.20;2.30;;;;;;;20.01;76.63;101080.00;5029010;28;20370;-69
2022/06/25 08:55:38;;;;;;;7.72;3.22;;;;;;;19.99;78.34;101079.44;5028688;28;20055;-69
2022/06/25 08:58:05;;;;;;;2.40;2.13;;;;;;;19.90;79.33;101077.19;5028805;28;20086;-69
2022/06/25 09:00:33;;;;;;;3.92;2.47;;;;;;;19.79;78.65;101052.97;5028975;28;20086;-69
2022/06/25 09:03:00;;;;;;;3.65;2.53;;;;;;;20.03;78.52;101061.63;5028928;28;20159;-69
2022/06/25 09:05:35;;;;;;;2.72;2.53;;;;;;;20.38;77.68;101069.28;5028974;28;20043;-69
2022/06/25 09:08:03;;;;;;;5.55;2.70;;;;;;;20.70;76.48;101066.63;5028911;28;20083;-69
2022/06/25 09:10:29;;;;;;;4.72;2.08;;;;;;;21.01;76.48;101073.09;5028871;28;20025;-69
2022/06/25 09:12:56;;;;;;;3.50;3.10;;;;;;;21.25;74.70;101072.69;5028821;28;20021;-69
2022/06/25 09:15:30;;;;;;;3.28;2.88;;;;;;;21.44;74.23;101064.94;5031385;28;20038;-69
2022/06/25 09:17:56;;;;;;;3.50;3.20;;;;;;;21.32;71.35;101059.69;5032511;28;20045;-71
2022/06/25 09:20:22;;;;;;;5.40;3.60;;;;;;;21.23;73.92;101064.81;5032646;28;20029;-69
2022/06/25 09:23:06;;;;;;;3.53;3.22;;;;;;;21.00;72.94;101062.50;5032672;28;20116;-70
2022/06/25 09:25:34;;;;;;;4.63;3.20;;;;;;;20.79;72.92;101056.91;5032599;28;20029;-72
2022/06/25 09:28:01;;;;;;;3.90;3.50;;;;;;;20.75;74.39;101068.53;5032159;28;20029;-71
2022/06/25 09:30:31;;;;;;;4.28;3.05;;;;;;;20.73;72.74;101068.00;5032342;28;20112;-75
2022/06/25 09:33:01;;;;;;;5.80;3.78;;;;;;;20.68;73.72;101076.09;5032511;28;20388;-70
2022/06/25 09:35:29;;;;;;;5.15;3.30;;;;;;;20.63;73.85;101073.34;5032508;28;20472;-70
2022/06/25 09:38:03;;;;;;;11.50;3.90;;;;;;;20.59;74.89;101073.00;5031038;28;20440;-71
2022/06/25 09:40:29;;;;;;;3.58;2.90;;;;;;;20.46;75.37;101070.69;5032511;28;20112;-70
2022/06/25 09:42:56;;;;;;;4.07;3.42;;;;;;;20.32;74.35;101078.44;5032284;28;20560;-70
2022/06/25 09:45:22;;;;;;;6.35;3.00;;;;;;;20.24;75.62;101066.16;5032399;28;20037;-70
2022/06/25 09:47:47;;;;;;;2.65;2.45;;;;;;;20.30;75.89;101069.75;5031831;28;20048;-70
2022/06/25 09:50:15;;;;;;;3.97;3.00;;;;;;;20.34;74.42;101070.88;5031948;28;20120;-70
2022/06/25 09:53:01;;;;;;;3.85;3.17;;;;;;;20.35;74.81;101065.19;5032039;28;20076;-70
2022/06/25 09:55:29;;;;;;;3.90;2.78;;;;;;;20.41;74.90;101070.66;5031938;28;20032;-70
2022/06/25 09:57:54;;;;;;;3.88;2.90;;;;;;;20.46;73.88;101076.97;5032053;28;20033;-70
2022/06/25 10:00:22;;;;;;;4.03;3.25;;;;;;;20.55;75.72;101075.44;5031966;28;20140;-70
2022/06/25 10:02:49;;;;;;;3.00;2.70;;;;;;;20.69;75.33;101075.81;5031825;28;20030;-70
2022/06/25 10:05:18;;;;;;;5.47;3.30;;;;;;;20.94;74.27;101074.38;5031895;28;20033;-70
2022/06/25 10:07:59;;;;;;;3.30;2.47;;;;;;;21.11;74.93;101074.22;5031864;28;20025;-70
2022/06/25 10:10:26;;;;;;;2.42;2.22;;;;;;;21.08;73.11;101066.59;5031830;28;20029;-70
2022/06/25 10:12:52;;;;;;;3.83;2.50;;;;;;;21.17;73.06;101070.47;5031799;28;20550;-70
2022/06/25 10:15:19;;;;;;;4.15;2.40;;;;;;;21.36;72.54;101074.38;5031558;28;20083;-71
2022/06/25 10:17:46;;;;;;;2.45;2.25;;;;;;;21.42;71.57;101076.06;5031585;28;20445;-70
2022/06/25 10:20:13;;;;;;;2.70;2.50;;;;;;;21.43;71.57;101079.56;5030343;28;20447;-70
2022/06/25 10:22:39;;;;;;;3.70;2.85;;;;;;;21.42;71.51;101078.75;5031664;28;20061;-72
2022/06/25 10:25:12;;;;;;;5.28;2.85;;;;;;;21.44;72.85;101073.91;5031290;28;20147;-71
2022/06/25 10:27:43;;;;;;;5.07;2.38;;;;;;;21.57;73.71;101067.19;5031598;28;20468;-73
2022/06/25 10:30:10;;;;;;;7.40;3.28;;;;;;;21.71;71.05;101077.53;5031572;28;20254;-72
2022/06/25 10:32:47;;;;;;;6.38;2.53;;;;;;;21.96;71.34;101074.13;5031501;28;20041;-66
2022/06/25 10:35:42;;;;;;;2.97;2.72;;;;;;;22.17;71.04;101077.69;5031428;28;20029;-67
2022/06/25 10:38:10;;;;;;;3.33;2.42;;;;;;;22.20;70.36;101077.19;5026390;28;20075;-67
2022/06/25 10:40:58;;;;;;;4.07;2.83;;;;;;;22.18;70.52;101080.13;5031161;28;20083;-66
2022/06/25 10:43:38;;;;;;;3.15;2.58;;;;;;;22.16;69.53;101074.13;5031301;28;20113;-66
2022/06/25 10:46:18;;;;;;;2.75;2.22;;;;;;;22.37;68.99;101082.34;5031092;28;20040;-67
2022/06/25 10:48:52;;;;;;;3.92;2.05;;;;;;;22.64;66.83;101074.78;5031090;28;20112;-66
2022/06/25 10:51:42;;;;;;;3.35;2.10;;;;;;;23.01;66.50;101079.13;5030644;28;20058;-66
2022/06/25 10:54:27;;;;;;;3.50;1.95;;;;;;;23.25;64.59;101073.09;5025699;28;20413;-67
2022/06/25 10:56:54;;;;;;;3.85;1.80;;;;;;;23.26;65.77;101069.28;5029427;28;20457;-66
2022/06/25 10:59:46;;;;;;;2.65;2.25;;;;;;;23.04;67.19;101075.03;5030678;28;20431;-66
2022/06/25 11:02:15;;;;;;;3.25;2.05;;;;;;;22.99;65.89;101072.34;5030961;28;20076;-66
2022/06/25 11:04:48;;;;;;;2.13;1.90;;;;;;;23.02;64.49;101072.59;5029494;28;20057;-66
2022/06/25 11:07:19;;;;;;;2.88;1.83;;;;;;;23.32;65.52;101068.19;5030811;28;20029;-66
2022/06/25 11:09:53;;;;;;;2.70;1.90;;;;;;;23.72;66.81;101050.09;5030788;28;20071;-66
2022/06/25 11:12:18;;;;;;;2.05;1.88;;;;;;;24.07;67.20;101057.22;5030698;28;20038;-66
2022/06/25 11:14:59;;;;;;;3.60;2.00;;;;;;;24.21;60.12;101057.44;5030618;28;20039;-66
2022/06/25 11:17:25;;;;;;;4.75;1.90;;;;;;;24.42;61.18;101041.75;5012729;28;20428;-66
2022/06/25 11:19:50;;;;;;;1.70;1.60;;;;;;;24.49;59.91;101050.41;5030478;28;20041;-66
2022/06/25 11:22:15;;;;;;;2.20;1.60;;;;;;;24.20;60.40;101045.69;5030343;28;20048;-66
2022/06/25 11:28:47;;;;;;;2.17;1.80;;;;;;;24.01;61.59;101048.28;5030475;28;20025;-66
2022/06/25 11:30:14;;;;;;;3.10;1.83;;;;;;;23.50;62.88;101056.69;5030429;28;20043;-66
2022/06/25 11:32:44;;;;;;;2.03;1.50;;;;;;;23.84;61.60;101067.72;5030305;28;20088;-66
2022/06/25 11:35:09;;;;;;;1.58;1.48;;;;;;;24.06;60.22;101063.78;5030270;28;20036;-66